Montrose Regional Airport
KMTJ : now visible

Airfield :











YOU CAN JOIN US ON...

 
LOGIN :

Register | Disclaimer

   EN    FR    IT 

 









Legend :    VFR   Marginal VFR   IFR   Intensive IFR   Very Intensive IFR
Visi :
Ceiling :
>= 8 km
>= 3000ft
5 to 8 km
1000 to 3000 ft
1500m to 5 km
500 to 1000 ft
800 to 1500m
200 to 500 ft
< 800m
< 200 ft
Symbols :   Thunderstorms  Fog  Heavy snow  Heavy precipitations  Wind > 20 kt






- Airport Elevation : 5759 ft


KMTJ - Montrose Regional

CURRENT METAR :
  • 030053Z AUTO 17007KT 10SM FEW012 SCT045 BKN085 02/M01 A2998 RMK AO2 SLP124 T00221011

EXPIRED METARs :
  • 022353Z AUTO 06005KT 10SM FEW010 SCT025 OVC033 02/M01 A2998 RMK AO2 SNB08E39 SLP123 P0001 60002 T00171006 10061 20006 51019
  • 022330Z AUTO 00000KT 3SM -SN BR SCT018 BKN024 OVC033 01/M01 A2998 RMK AO2 SNB08 P0001 T00111006
  • 022317Z AUTO 35006KT 1 3/4SM -SN BR FEW011 BKN018 OVC029 01/M01 A2997 RMK AO2 SNB08 P0001 T00111011
  • 022300Z AUTO 33006KT 10SM SCT011 BKN015 OVC029 02/M01 A2998 RMK AO2 T00171006
  • 022253Z AUTO 34008KT 9SM SCT009 SCT013 OVC028 02/M01 A2997 RMK AO2 SNB08E49 SLP117 P0000 T00171006

TAF KMTJ
Valid from the 03 at 00:00 until the 04 at 00:00 UTC


022335Z 0300/0324 34008KT P6SM VCSH SCT009 SCT013 BKN030
TEMPO 0300/0301 3SM -SN BR OVC015
FM030300 31006KT P6SM SCT060 BKN070
FM030700 26004KT P6SM SCT100 SCT200
FM031300 11005KT P6SM FEW080 FEW250



MET'MAP, your aeronautical weather chart ! - Copyright ORBIFLY December 2007 - Disclaimer

ORBIFLY MET'MAP TEAM :

Programming & Development : Alexandra Zaïnal
Concept & original design : Baudouin d'Aumeries
Assistance for programming : Marc-Olivier Méhu
Technical & hardware support : Manuel Goepfert

Contact : metmap@orbifly.com




SOURCES & CREDITS :

   NOAA       Earth
Advisory